Time;durP1;ratioP1;P1;durP2;ratioP2;P2;SDS_P1;SDS_P2;PMS_P1;PMS_P2;Temp;Humidity;BMP_temperature;BMP_pressure;BME280_temperature;BME280_humidity;BME280_pressure;Samples;Min_cycle;Max_cycle;Signal;HPM_P1;HPM_P2
2022/05/22 00:00:14;;;;;;;8.70;3.58;;;11.30;99.90;;;;;;5061003;28;20047;-79
2022/05/22 00:02:40;;;;;;;12.02;3.10;;;11.30;99.90;;;;;;5077747;28;20090;-79
2022/05/22 00:05:08;;;;;;;9.90;3.65;;;11.30;99.90;;;;;;5077955;28;20094;-79
2022/05/22 00:07:33;;;;;;;8.10;3.00;;;11.30;99.90;;;;;;5061416;28;20504;-79
2022/05/22 00:10:01;;;;;;;9.18;3.58;;;11.20;99.90;;;;;;5077520;28;20040;-79
2022/05/22 00:12:27;;;;;;;9.98;3.30;;;11.20;99.90;;;;;;5061014;28;20492;-79
2022/05/22 00:14:52;;;;;;;7.90;3.00;;;11.20;99.90;;;;;;5077575;28;20397;-79
2022/05/22 00:17:18;;;;;;;10.15;3.50;;;11.20;99.90;;;;;;5077490;28;20050;-79
2022/05/22 00:19:44;;;;;;;10.38;3.45;;;11.20;99.90;;;;;;5060716;28;20048;-79
2022/05/22 00:22:09;;;;;;;8.10;3.05;;;11.10;99.90;;;;;;5061026;28;20044;-79
2022/05/22 00:24:36;;;;;;;8.27;3.28;;;11.10;99.90;;;;;;5060603;28;20520;-79
2022/05/22 00:27:02;;;;;;;11.15;4.03;;;11.10;99.90;;;;;;5077357;28;20055;-79
2022/05/22 00:29:28;;;;;;;9.00;3.50;;;11.10;99.90;;;;;;5077269;28;20043;-79
2022/05/22 00:31:54;;;;;;;8.10;4.05;;;11.10;99.90;;;;;;5077233;28;20043;-79
2022/05/22 00:34:20;;;;;;;9.20;3.05;;;11.10;99.90;;;;;;5077319;28;20563;-79
2022/05/22 00:36:45;;;;;;;7.72;3.58;;;11.00;99.90;;;;;;5077192;28;20040;-79
2022/05/22 00:39:11;;;;;;;7.82;3.17;;;11.10;99.90;;;;;;5077357;28;20151;-79
2022/05/22 00:41:38;;;;;;;9.13;3.85;;;11.00;99.90;;;;;;5077385;28;20048;-79
2022/05/22 00:44:04;;;;;;;9.55;3.40;;;11.00;99.90;;;;;;5077167;28;20156;-79
2022/05/22 00:46:31;;;;;;;13.13;3.70;;;11.00;99.90;;;;;;5076816;28;20079;-79
2022/05/22 00:49:11;;;;;;;13.68;4.80;;;10.90;99.90;;;;;;5076804;28;20564;-79
2022/05/22 00:51:42;;;;;;;9.27;4.07;;;10.90;99.90;;;;;;5060340;28;20087;-79
2022/05/22 00:54:16;;;;;;;6.13;3.22;;;10.80;99.90;;;;;;5059956;28;20047;-79
2022/05/22 00:57:09;;;;;;;7.07;3.30;;;10.80;99.90;;;;;;5060268;28;20554;-79
2022/05/22 00:59:38;;;;;;;8.52;3.33;;;10.80;99.90;;;;;;5049530;28;20052;-79
2022/05/22 01:02:04;;;;;;;7.53;3.45;;;10.70;99.90;;;;;;5059891;28;20040;-79
2022/05/22 01:04:33;;;;;;;8.45;3.70;;;10.70;99.90;;;;;;5059930;28;20210;-79
2022/05/22 01:07:00;;;;;;;6.47;3.03;;;10.70;99.90;;;;;;5076299;28;20067;-79
2022/05/22 01:09:25;;;;;;;8.70;3.38;;;10.70;99.90;;;;;;5060038;28;20510;-79
2022/05/22 01:11:55;;;;;;;9.05;3.00;;;10.70;99.90;;;;;;5076357;28;20083;-79
2022/05/22 01:14:22;;;;;;;7.50;2.55;;;10.70;99.90;;;;;;5059700;28;20567;-79
2022/05/22 01:16:51;;;;;;;2.70;1.75;;;10.60;99.90;;;;;;5059503;28;20040;-79
2022/05/22 01:19:21;;;;;;;7.13;2.78;;;10.60;99.90;;;;;;5076281;28;20052;-79
2022/05/22 01:21:53;;;;;;;9.05;3.40;;;10.60;99.90;;;;;;5075823;28;20044;-79
2022/05/22 01:24:19;;;;;;;7.97;3.70;;;10.60;99.90;;;;;;5076045;28;20051;-79
2022/05/22 01:26:46;;;;;;;9.38;3.85;;;10.50;99.90;;;;;;5076327;28;20134;-79
2022/05/22 01:29:11;;;;;;;8.45;3.53;;;10.50;99.90;;;;;;5076372;28;20052;-79
2022/05/22 01:31:37;;;;;;;6.75;3.40;;;10.50;99.90;;;;;;5075890;28;20050;-79
2022/05/22 01:34:03;;;;;;;8.20;3.40;;;10.50;99.90;;;;;;5075926;28;20048;-79
2022/05/22 01:36:28;;;;;;;7.75;2.80;;;10.50;99.90;;;;;;5076015;28;20051;-79
2022/05/22 01:38:54;;;;;;;9.45;3.17;;;10.50;99.90;;;;;;5059259;28;20131;-79
2022/05/22 01:41:19;;;;;;;4.80;2.42;;;10.40;99.90;;;;;;5075990;28;20155;-79
2022/05/22 01:43:45;;;;;;;9.80;3.08;;;10.40;99.90;;;;;;5076344;28;20048;-79
2022/05/22 01:46:10;;;;;;;6.68;3.05;;;10.40;99.90;;;;;;5059126;28;20052;-79
2022/05/22 01:48:36;;;;;;;8.60;3.80;;;10.40;99.90;;;;;;5076078;28;20052;-79
2022/05/22 01:51:02;;;;;;;10.45;3.90;;;10.30;99.90;;;;;;5075781;28;20103;-79
2022/05/22 01:53:28;;;;;;;9.00;3.55;;;10.30;99.90;;;;;;5059039;28;20071;-79
2022/05/22 01:55:53;;;;;;;10.32;4.00;;;10.30;99.90;;;;;;5075737;28;20051;-79
2022/05/22 01:58:19;;;;;;;8.20;4.10;;;10.30;99.90;;;;;;5075666;28;20055;-79
2022/05/22 02:00:45;;;;;;;9.23;3.10;;;10.30;99.90;;;;;;5075915;28;20040;-79
2022/05/22 02:03:11;;;;;;;6.70;3.10;;;10.40;99.90;;;;;;5058885;28;20087;-79
2022/05/22 02:05:37;;;;;;;10.82;3.25;;;10.40;99.90;;;;;;5083245;22;20067;-70
2022/05/22 02:10:53;;;;;;;7.10;3.30;;;10.50;99.90;;;;;;5091873;28;20048;-70
2022/05/22 02:13:21;;;;;;;7.68;3.30;;;10.50;99.90;;;;;;5092183;28;20070;-70
2022/05/22 02:15:47;;;;;;;4.68;2.72;;;10.40;99.90;;;;;;5091784;28;20079;-70
2022/05/22 02:18:13;;;;;;;8.88;3.53;;;10.40;99.90;;;;;;5092037;28;20432;-70
2022/05/22 02:20:39;;;;;;;8.88;3.80;;;10.40;99.90;;;;;;5075129;28;20138;-70
2022/05/22 02:23:05;;;;;;;12.27;4.93;;;10.40;99.90;;;;;;5092034;28;20446;-70
2022/05/22 02:25:33;;;;;;;9.95;4.50;;;10.30;99.90;;;;;;5091633;28;20499;-70
2022/05/22 02:28:00;;;;;;;9.63;3.80;;;10.30;99.90;;;;;;5091644;28;20048;-70
2022/05/22 02:30:28;;;;;;;8.90;4.10;;;10.30;99.90;;;;;;5091622;28;20084;-70
2022/05/22 02:32:54;;;;;;;8.35;4.30;;;10.30;99.90;;;;;;5077012;28;20055;-69
2022/05/22 02:35:20;;;;;;;10.13;4.45;;;10.20;99.90;;;;;;5095541;28;20050;-69
2022/05/22 02:37:48;;;;;;;9.70;4.30;;;10.20;99.90;;;;;;5095626;28;20047;-69
2022/05/22 02:40:15;;;;;;;9.02;5.07;;;10.20;99.90;;;;;;5095845;28;20063;-70
2022/05/22 02:42:46;;;;;;;11.05;5.25;;;10.20;99.90;;;;;;5095520;28;20055;-70
2022/05/22 02:45:15;;;;;;;11.57;5.20;;;10.20;99.90;;;;;;5095659;28;20411;-70
2022/05/22 02:47:41;;;;;;;12.52;5.82;;;10.20;99.90;;;;;;5095405;28;20048;-70
2022/05/22 02:50:08;;;;;;;12.45;6.20;;;10.20;99.90;;;;;;5095288;28;20401;-70
2022/05/22 02:52:34;;;;;;;9.10;4.32;;;10.20;99.90;;;;;;5095281;28;20040;-70
2022/05/22 02:54:59;;;;;;;10.20;4.78;;;10.20;99.90;;;;;;5095254;28;20082;-70
2022/05/22 02:57:25;;;;;;;9.40;4.57;;;10.20;99.90;;;;;;5095146;28;20052;-70
2022/05/22 02:59:52;;;;;;;8.57;4.90;;;10.20;99.90;;;;;;5078223;28;20043;-70
2022/05/22 03:02:18;;;;;;;9.38;4.35;;;10.20;99.90;;;;;;5095149;28;20101;-70
2022/05/22 03:04:45;;;;;;;16.15;5.25;;;10.10;99.90;;;;;;5095057;28;20407;-70
2022/05/22 03:07:12;;;;;;;9.30;4.57;;;10.10;99.90;;;;;;5094856;28;20075;-70
2022/05/22 03:09:40;;;;;;;9.63;4.50;;;10.10;99.90;;;;;;5094962;28;20057;-70
2022/05/22 03:12:11;;;;;;;8.48;4.00;;;10.10;99.90;;;;;;5078014;28;20047;-70
2022/05/22 03:14:36;;;;;;;8.65;3.88;;;10.00;99.90;;;;;;5095183;28;20054;-70
2022/05/22 03:17:02;;;;;;;9.20;4.22;;;10.00;99.90;;;;;;5095101;28;20126;-70
2022/05/22 03:19:28;;;;;;;9.85;4.35;;;10.00;99.90;;;;;;5094806;28;20492;-70
2022/05/22 03:21:53;;;;;;;9.82;4.60;;;10.00;99.90;;;;;;5094990;28;20048;-70
2022/05/22 03:24:19;;;;;;;8.18;4.22;;;10.00;99.90;;;;;;5094730;28;20461;-70
2022/05/22 03:26:45;;;;;;;12.18;4.65;;;10.00;99.90;;;;;;5094535;28;20048;-70
2022/05/22 03:29:11;;;;;;;8.13;4.35;;;10.00;99.90;;;;;;5094511;28;20055;-70
2022/05/22 03:31:37;;;;;;;6.95;3.95;;;10.00;99.90;;;;;;5094531;28;20052;-70
2022/05/22 03:34:04;;;;;;;13.32;4.28;;;10.00;99.90;;;;;;5094549;28;20055;-70
2022/05/22 03:36:29;;;;;;;11.05;4.65;;;10.00;99.90;;;;;;5094710;28;20202;-70
2022/05/22 03:38:55;;;;;;;9.95;4.43;;;10.00;99.90;;;;;;5094447;28;20515;-70
2022/05/22 03:41:21;;;;;;;12.07;4.85;;;9.90;99.90;;;;;;5094670;28;20048;-70
2022/05/22 03:43:47;;;;;;;8.13;3.97;;;9.90;99.90;;;;;;5093662;28;20527;-70
2022/05/22 03:46:12;;;;;;;6.60;4.32;;;9.90;99.90;;;;;;5094241;28;20051;-70
2022/05/22 03:48:40;;;;;;;8.55;4.40;;;9.90;99.90;;;;;;5094533;28;20055;-70
2022/05/22 03:51:06;;;;;;;7.72;4.43;;;9.90;99.90;;;;;;5094235;28;20052;-70
2022/05/22 03:53:32;;;;;;;6.18;3.60;;;9.80;99.90;;;;;;5094122;28;20496;-70
2022/05/22 03:55:57;;;;;;;4.47;2.92;;;9.80;99.90;;;;;;5094019;28;20040;-70
2022/05/22 03:58:23;;;;;;;8.98;4.45;;;9.80;99.90;;;;;;5094354;28;20040;-70
2022/05/22 04:00:48;;;;;;;10.32;3.80;;;9.70;99.90;;;;;;5094308;28;20079;-70
2022/05/22 04:03:14;;;;;;;10.35;4.93;;;9.70;99.90;;;;;;5094224;28;20436;-70
2022/05/22 04:05:40;;;;;;;6.03;3.92;;;9.70;99.90;;;;;;5094023;28;20537;-70
2022/05/22 04:08:05;;;;;;;8.50;3.67;;;9.60;99.90;;;;;;5093874;28;20051;-70
2022/05/22 04:10:31;;;;;;;6.63;4.10;;;9.60;99.90;;;;;;5077155;28;20059;-70
2022/05/22 04:12:57;;;;;;;7.70;3.80;;;9.60;99.90;;;;;;5094080;28;20079;-70
2022/05/22 04:15:23;;;;;;;7.85;3.97;;;9.60;99.90;;;;;;5093685;28;20392;-70
2022/05/22 04:17:48;;;;;;;8.68;4.90;;;9.70;99.90;;;;;;5093685;28;20036;-70
2022/05/22 04:20:16;;;;;;;6.97;4.13;;;9.60;99.90;;;;;;5076998;28;20100;-70
2022/05/22 04:25:28;;;;;;;10.55;4.57;;;9.60;99.90;;;;;;5093967;28;20087;-70
2022/05/22 04:27:54;;;;;;;9.00;4.10;;;9.60;99.90;;;;;;5093391;28;20499;-70
2022/05/22 04:30:20;;;;;;;9.48;4.93;;;9.50;99.90;;;;;;5093416;28;20105;-70
2022/05/22 04:32:48;;;;;;;8.25;4.07;;;9.60;99.90;;;;;;5093425;28;20086;-70
2022/05/22 04:35:14;;;;;;;8.18;4.72;;;9.60;99.90;;;;;;5093540;28;20044;-70
2022/05/22 04:37:39;;;;;;;8.88;4.43;;;9.60;99.90;;;;;;5093304;28;20040;-70
2022/05/22 04:40:07;;;;;;;9.45;4.70;;;9.60;99.90;;;;;;5076435;28;20047;-70
2022/05/22 04:42:33;;;;;;;8.98;4.90;;;9.70;99.90;;;;;;5093259;28;20043;-70
2022/05/22 04:44:59;;;;;;;9.05;4.40;;;9.70;99.90;;;;;;5093131;28;20048;-70
2022/05/22 04:47:25;;;;;;;9.98;4.53;;;9.70;99.90;;;;;;5076463;28;20051;-70
2022/05/22 04:49:50;;;;;;;9.00;4.70;;;9.80;99.90;;;;;;5093245;28;20554;-70
2022/05/22 04:52:16;;;;;;;10.02;4.45;;;9.80;99.90;;;;;;5093006;28;20044;-70
2022/05/22 04:54:42;;;;;;;10.38;5.55;;;9.80;99.90;;;;;;5092860;28;20076;-70
2022/05/22 04:57:07;;;;;;;12.27;4.68;;;9.90;99.90;;;;;;5091991;28;20086;-70
2022/05/22 04:59:33;;;;;;;10.70;5.10;;;9.90;99.90;;;;;;5093170;28;20052;-70
2022/05/22 05:01:59;;;;;;;8.05;5.05;;;10.00;99.90;;;;;;5092829;28;20044;-70
2022/05/22 05:04:24;;;;;;;8.82;5.10;;;10.00;99.90;;;;;;5093107;28;20048;-70
2022/05/22 05:06:52;;;;;;;10.45;5.75;;;10.10;99.90;;;;;;5092596;28;20050;-70
2022/05/22 05:09:18;;;;;;;9.00;6.05;;;10.10;99.90;;;;;;5092950;28;20040;-70
2022/05/22 05:11:44;;;;;;;11.48;5.53;;;10.20;99.90;;;;;;5092648;28;20519;-70
2022/05/22 05:14:09;;;;;;;9.98;5.70;;;10.30;99.90;;;;;;5075727;28;20083;-70
2022/05/22 05:16:35;;;;;;;15.90;6.47;;;10.40;99.90;;;;;;5092578;28;20048;-70
2022/05/22 05:19:01;;;;;;;10.05;6.57;;;10.50;99.90;;;;;;5092702;28;20047;-70
2022/05/22 05:21:27;;;;;;;15.57;7.20;;;10.50;99.90;;;;;;5075868;28;20087;-70
2022/05/22 05:23:55;;;;;;;15.00;6.97;;;10.60;99.90;;;;;;5092528;28;20499;-70
2022/05/22 05:26:20;;;;;;;20.80;8.13;;;10.70;99.90;;;;;;5092348;28;20573;-70
2022/05/22 05:28:46;;;;;;;16.10;8.65;;;10.70;99.90;;;;;;5092342;28;20052;-70
2022/05/22 05:31:12;;;;;;;21.48;8.88;;;10.80;99.90;;;;;;5092272;28;20112;-70
2022/05/22 05:33:37;;;;;;;15.35;7.75;;;10.90;99.90;;;;;;5092604;28;20082;-70
2022/05/22 05:36:03;;;;;;;16.65;8.20;;;11.00;99.90;;;;;;5092198;28;20131;-70
2022/05/22 05:38:30;;;;;;;20.42;9.10;;;11.10;99.90;;;;;;5092302;28;20048;-70
2022/05/22 05:40:56;;;;;;;18.65;7.85;;;11.10;99.90;;;;;;5092160;28;20415;-70
2022/05/22 05:43:21;;;;;;;21.52;8.18;;;11.20;99.90;;;;;;5092182;28;20177;-70
2022/05/22 05:45:47;;;;;;;16.98;7.20;;;11.30;99.90;;;;;;5092046;28;20162;-70
2022/05/22 05:48:13;;;;;;;14.35;8.00;;;11.40;99.90;;;;;;5092104;28;20044;-70
2022/05/22 05:50:40;;;;;;;20.33;7.82;;;11.50;99.90;;;;;;5092060;28;20127;-70
2022/05/22 05:53:06;;;;;;;14.48;6.82;;;11.60;99.90;;;;;;5092075;28;20575;-70
2022/05/22 05:55:32;;;;;;;9.98;6.30;;;11.70;99.90;;;;;;5092026;28;20122;-70
2022/05/22 05:57:57;;;;;;;18.25;7.10;;;11.80;99.90;;;;;;5075288;28;20056;-70
2022/05/22 06:00:24;;;;;;;19.33;7.82;;;11.90;99.90;;;;;;5091987;28;20048;-70
2022/05/22 06:02:49;;;;;;;18.33;7.50;;;12.00;99.90;;;;;;5091960;28;20048;-70
2022/05/22 06:05:16;;;;;;;19.35;6.68;;;12.00;99.90;;;;;;5091811;28;20111;-70
2022/05/22 06:07:42;;;;;;;18.02;6.88;;;12.10;99.90;;;;;;5093979;28;20047;-70
2022/05/22 06:10:10;;;;;;;12.75;6.28;;;12.20;99.90;;;;;;5096077;28;20060;-70
2022/05/22 06:12:36;;;;;;;15.68;6.70;;;12.30;99.90;;;;;;5079499;28;20076;-70
2022/05/22 06:15:02;;;;;;;19.25;7.63;;;12.30;99.90;;;;;;5096002;28;20464;-70
2022/05/22 06:17:37;;;;;;;18.10;6.55;;;12.50;99.90;;;;;;5096915;28;20094;-70
2022/05/22 06:20:06;;;;;;;18.08;6.28;;;12.60;99.90;;;;;;5079136;28;20118;-70
2022/05/22 06:22:34;;;;;;;17.50;6.20;;;12.60;99.90;;;;;;5095997;28;20040;-70
2022/05/22 06:25:04;;;;;;;16.50;6.55;;;12.70;99.90;;;;;;5095916;28;20048;-70
2022/05/22 06:27:30;;;;;;;19.08;6.80;;;12.80;99.90;;;;;;5095754;28;20075;-70
2022/05/22 06:29:56;;;;;;;15.75;6.13;;;12.90;99.90;;;;;;5079030;28;20086;-70
2022/05/22 06:32:22;;;;;;;17.27;6.10;;;13.00;99.90;;;;;;5095746;28;20127;-70
2022/05/22 06:34:48;;;;;;;14.65;5.53;;;13.10;99.90;;;;;;5095668;28;20419;-70
2022/05/22 06:37:19;;;;;;;16.52;5.80;;;13.20;99.90;;;;;;5095614;28;20044;-71
2022/05/22 06:39:52;;;;;;;14.88;5.47;;;13.30;99.90;;;;;;5095696;28;20079;-70
2022/05/22 06:42:22;;;;;;;20.30;5.57;;;13.30;99.90;;;;;;5095873;28;20526;-70
2022/05/22 06:45:09;;;;;;;15.50;5.53;;;13.40;99.90;;;;;;5095813;28;20348;-70
2022/05/22 06:47:35;;;;;;;18.08;6.38;;;13.50;99.90;;;;;;5095482;28;20055;-70
2022/05/22 06:50:05;;;;;;;19.23;5.63;;;13.60;99.90;;;;;;5095209;28;20701;-70
2022/05/22 06:52:32;;;;;;;20.00;6.30;;;13.70;99.90;;;;;;5078414;28;20423;-70
2022/05/22 06:54:59;;;;;;;16.08;5.25;;;13.80;99.90;;;;;;5095312;28;20090;-70
2022/05/22 06:57:25;;;;;;;15.30;4.80;;;13.80;99.90;;;;;;5095449;28;20048;-70
2022/05/22 06:59:55;;;;;;;13.60;4.63;;;13.90;99.90;;;;;;5095216;28;20040;-70
2022/05/22 07:02:21;;;;;;;12.95;4.60;;;14.00;99.90;;;;;;5095152;28;20044;-70
2022/05/22 07:04:46;;;;;;;17.75;5.32;;;14.20;99.90;;;;;;5095370;28;20044;-70
2022/05/22 07:07:12;;;;;;;15.30;4.63;;;14.20;99.90;;;;;;5094916;28;20412;-70
2022/05/22 07:09:38;;;;;;;14.00;5.40;;;14.30;99.90;;;;;;5094943;28;20098;-70
2022/05/22 07:12:09;;;;;;;12.45;4.18;;;14.40;99.90;;;;;;5094933;28;20045;-70
2022/05/22 07:14:35;;;;;;;16.02;4.72;;;14.40;99.90;;;;;;5094953;28;20050;-70
2022/05/22 07:17:02;;;;;;;18.80;4.85;;;14.50;99.90;;;;;;5094765;28;20044;-70
2022/05/22 07:19:28;;;;;;;18.08;4.60;;;14.50;99.90;;;;;;5076839;28;20040;-70
2022/05/22 07:21:54;;;;;;;12.27;3.85;;;14.60;99.90;;;;;;5095090;28;20056;-70
2022/05/22 07:24:19;;;;;;;10.70;3.80;;;14.70;99.90;;;;;;5095072;28;20057;-70
2022/05/22 07:26:45;;;;;;;16.27;4.20;;;14.80;99.90;;;;;;5094611;28;20040;-70
2022/05/22 07:29:10;;;;;;;11.40;4.00;;;14.90;99.90;;;;;;5094683;28;20040;-70
2022/05/22 07:31:39;;;;;;;12.30;4.15;;;15.00;99.90;;;;;;5094523;28;20048;-70
2022/05/22 07:34:05;;;;;;;12.75;4.05;;;15.10;99.90;;;;;;5094736;28;20040;-70
2022/05/22 07:36:31;;;;;;;15.30;4.07;;;15.20;99.90;;;;;;5094384;28;20044;-70
2022/05/22 07:38:56;;;;;;;14.82;3.85;;;15.30;99.90;;;;;;5077650;28;20130;-70
2022/05/22 07:41:22;;;;;;;12.48;3.75;;;15.40;99.90;;;;;;5077925;28;20114;-70
2022/05/22 07:43:48;;;;;;;13.27;3.72;;;15.50;99.90;;;;;;5094377;28;20079;-70
2022/05/22 07:46:14;;;;;;;11.50;2.97;;;15.60;99.90;;;;;;5094254;28;20101;-70
2022/05/22 07:48:41;;;;;;;10.40;2.30;;;15.60;99.90;;;;;;5094336;28;20118;-70
2022/05/22 07:51:08;;;;;;;11.48;2.67;;;15.70;99.90;;;;;;5094140;28;20496;-70
2022/05/22 07:53:33;;;;;;;10.15;3.40;;;15.80;99.90;;;;;;5094457;28;20488;-70
2022/05/22 07:55:59;;;;;;;9.32;2.40;;;15.80;99.90;;;;;;5093981;28;20059;-70
2022/05/22 07:58:26;;;;;;;11.25;3.15;;;15.90;99.90;;;;;;5094120;28;20055;-70
2022/05/22 08:00:54;;;;;;;13.77;3.47;;;16.00;99.90;;;;;;5094317;28;20060;-70
2022/05/22 08:03:20;;;;;;;9.93;2.20;;;16.10;99.90;;;;;;5094252;28;20522;-70
2022/05/22 08:05:46;;;;;;;8.35;2.20;;;16.30;99.90;;;;;;5118187;22;20044;-78
2022/05/22 08:08:12;;;;;;;9.70;1.98;;;16.40;99.90;;;;;;5057306;28;20044;-79
2022/05/22 08:10:40;;;;;;;9.65;2.50;;;16.30;99.90;;;;;;5090810;28;20041;-78
2022/05/22 08:13:08;;;;;;;11.48;2.38;;;16.50;99.90;;;;;;5073778;28;20052;-78
2022/05/22 08:15:35;;;;;;;13.70;2.80;;;16.70;99.90;;;;;;5057053;28;20080;-78
2022/05/22 08:18:01;;;;;;;9.35;2.42;;;16.80;99.90;;;;;;5057297;28;20045;-78
2022/05/22 08:20:28;;;;;;;9.95;1.85;;;16.90;99.90;;;;;;5057274;28;20051;-78
2022/05/22 08:22:58;;;;;;;8.57;1.95;;;17.10;99.90;;;;;;5057317;28;20049;-78
2022/05/22 08:25:27;;;;;;;12.25;2.50;;;17.20;99.90;;;;;;5057372;28;20055;-78
2022/05/22 08:27:54;;;;;;;10.63;2.20;;;17.30;99.90;;;;;;5057340;28;20151;-78
2022/05/22 08:30:24;;;;;;;10.23;2.13;;;17.40;99.90;;;;;;5073316;28;20047;-78
2022/05/22 08:32:51;;;;;;;9.25;2.00;;;17.50;99.90;;;;;;5073606;28;20132;-78
2022/05/22 08:35:24;;;;;;;6.50;1.90;;;17.60;99.90;;;;;;5073471;28;20575;-78
2022/05/22 08:37:50;;;;;;;9.88;2.30;;;17.70;99.90;;;;;;5057213;28;20044;-78
2022/05/22 08:40:19;;;;;;;11.80;2.25;;;17.80;99.90;;;;;;5073619;28;20484;-78
2022/05/22 08:43:09;;;;;;;13.27;2.10;;;17.90;99.90;;;;;;5056870;28;20079;-78
2022/05/22 08:45:52;;;;;;;8.85;2.50;;;18.00;99.90;;;;;;5056911;28;20074;-79
2022/05/22 08:48:44;;;;;;;8.82;1.98;;;18.10;99.90;;;;;;5073693;28;20067;-79
2022/05/22 08:51:16;;;;;;;8.70;1.80;;;18.20;99.90;;;;;;5073583;28;20416;-79
2022/05/22 08:53:52;;;;;;;10.73;2.10;;;18.30;99.90;;;;;;5073743;28;20640;-79
2022/05/22 08:59:24;;;;;;;8.00;1.60;;;18.60;99.90;;;;;;5073168;28;20055;-79
2022/05/22 09:02:23;;;;;;;6.30;1.58;;;18.80;99.90;;;;;;5073415;28;20040;-79
2022/05/22 09:05:05;;;;;;;10.85;2.47;;;18.90;99.90;;;;;;5056871;28;20052;-79
2022/05/22 09:07:49;;;;;;;8.57;1.80;;;19.00;99.90;;;;;;5056660;28;20178;-79
2022/05/22 09:10:20;;;;;;;10.93;2.55;;;19.20;99.90;;;;;;5073349;28;20106;-79
2022/05/22 09:13:15;;;;;;;8.07;1.85;;;19.20;99.90;;;;;;5073088;28;20127;-79
2022/05/22 09:15:57;;;;;;;7.72;1.73;;;19.40;99.90;;;;;;5073078;28;20044;-78
2022/05/22 09:18:27;;;;;;;12.50;2.33;;;19.60;99.90;;;;;;5056506;28;20041;-78
2022/05/22 09:20:56;;;;;;;12.40;2.22;;;19.80;99.90;;;;;;5073295;28;20048;-78
2022/05/22 09:23:31;;;;;;;10.02;1.85;;;20.00;99.90;;;;;;5056255;28;20045;-78
2022/05/22 09:26:10;;;;;;;11.25;2.00;;;20.20;99.90;;;;;;5072988;28;20048;-78
2022/05/22 09:28:55;;;;;;;9.85;2.03;;;20.40;99.90;;;;;;5073236;28;20087;-79
2022/05/22 09:31:40;;;;;;;9.18;1.88;;;20.30;99.90;;;;;;5056466;28;20056;-79
2022/05/22 09:34:08;;;;;;;9.70;1.80;;;20.30;99.90;;;;;;5056064;28;20080;-79
2022/05/22 09:37:02;;;;;;;7.78;1.80;;;20.10;99.90;;;;;;5055930;28;20397;-79
2022/05/22 09:39:50;;;;;;;7.60;1.85;;;19.90;99.80;;;;;;5055933;28;20055;-79
2022/05/22 09:42:44;;;;;;;8.95;1.98;;;19.60;99.90;;;;;;5072163;28;20139;-79
2022/05/22 09:45:35;;;;;;;7.25;1.67;;;19.50;99.90;;;;;;5072563;28;20504;-79
2022/05/22 09:48:31;;;;;;;9.70;1.58;;;19.50;99.90;;;;;;5072454;28;20052;-79
2022/05/22 09:51:25;;;;;;;12.07;2.05;;;19.60;99.90;;;;;;5055821;28;20055;-79
2022/05/22 09:54:14;;;;;;;9.90;2.20;;;19.90;99.90;;;;;;5056177;28;20044;-79
2022/05/22 09:57:29;;;;;;;8.82;2.20;;;20.30;98.50;;;;;;5072425;28;20049;-79
2022/05/22 10:00:12;;;;;;;6.15;1.75;;;20.60;99.90;;;;;;5072231;28;20060;-79
2022/05/22 10:03:03;;;;;;;8.82;1.83;;;20.90;93.50;;;;;;5072433;28;20523;-79
2022/05/22 10:06:06;;;;;;;8.65;2.00;;;21.20;94.90;;;;;;5072314;28;20071;-79
2022/05/22 10:08:37;;;;;;;8.32;1.42;;;21.30;93.70;;;;;;5072546;28;20057;-79
2022/05/22 10:11:18;;;;;;;8.77;1.70;;;21.40;91.80;;;;;;5072176;28;20048;-79
2022/05/22 10:14:05;;;;;;;9.10;1.98;;;21.60;82.00;;;;;;5072400;28;20040;-79
2022/05/22 10:16:50;;;;;;;9.38;2.05;;;21.70;77.20;;;;;;5072184;28;20500;-79
2022/05/22 10:19:31;;;;;;;6.45;1.35;;;21.70;79.20;;;;;;5055612;28;20052;-79
2022/05/22 10:22:23;;;;;;;6.43;1.67;;;21.50;79.30;;;;;;5055461;28;20499;-79
2022/05/22 10:25:08;;;;;;;11.63;1.48;;;21.40;85.80;;;;;;5055612;28;20045;-79
2022/05/22 10:27:50;;;;;;;5.38;1.48;;;21.10;87.10;;;;;;5072067;28;20107;-79
2022/05/22 10:30:30;;;;;;;9.93;1.73;;;20.90;83.80;;;;;;5071875;28;20084;-79
2022/05/22 10:33:11;;;;;;;7.28;1.60;;;20.80;92.80;;;;;;5055464;28;20083;-79
2022/05/22 10:36:13;;;;;;;8.68;1.58;;;20.60;91.60;;;;;;5055455;28;20071;-80
2022/05/22 10:38:48;;;;;;;7.95;1.95;;;20.50;91.20;;;;;;5072255;28;20048;-80
2022/05/22 10:44:17;;;;;;;6.93;1.63;;;20.60;92.10;;;;;;5071640;28;20048;-80
2022/05/22 10:46:52;;;;;;;7.70;1.73;;;20.80;90.30;;;;;;5072028;28;20463;-79
2022/05/22 10:49:19;;;;;;;6.32;1.58;;;21.20;91.50;;;;;;5055182;28;20099;-79
2022/05/22 10:51:57;;;;;;;7.47;1.60;;;21.40;92.90;;;;;;5071641;28;20056;-79
2022/05/22 10:54:27;;;;;;;5.28;1.42;;;21.50;89.90;;;;;;5057965;28;20051;-79
2022/05/22 10:56:53;;;;;;;8.20;1.42;;;21.40;88.80;;;;;;5059133;28;20047;-79
2022/05/22 10:59:22;;;;;;;8.85;2.05;;;21.30;84.40;;;;;;5058832;28;20040;-79
2022/05/22 11:01:58;;;;;;;7.57;1.50;;;21.30;86.60;;;;;;5075500;28;20049;-79
2022/05/22 11:04:34;;;;;;;6.90;1.50;;;21.20;83.00;;;;;;5075648;28;20049;-79
2022/05/22 11:07:01;;;;;;;6.07;1.75;;;21.20;92.30;;;;;;5058424;28;20037;-79
2022/05/22 11:09:44;;;;;;;6.43;1.70;;;21.60;92.90;;;;;;5075224;28;20174;-79
2022/05/22 11:12:11;;;;;;;;;;;21.80;84.30;;;;;;5075611;28;20516;-79
2022/05/22 11:14:39;;;;;;;5.82;1.13;;;22.20;83.10;;;;;;5058922;28;19920;-79
2022/05/22 11:17:18;;;;;;;4.20;1.17;;;22.60;79.80;;;;;;5075064;28;20175;-79
2022/05/22 11:19:46;;;;;;;7.18;1.20;;;23.00;82.60;;;;;;5075609;28;20562;-79
2022/05/22 11:23:08;;;;;;;8.23;1.60;;;23.10;71.80;;;;;;5075159;28;20135;-79
2022/05/22 11:26:03;;;;;;;5.80;1.55;;;23.30;63.50;;;;;;4998133;28;20128;-79
2022/05/22 11:28:54;;;;;;;5.97;1.60;;;23.30;65.60;;;;;;5058540;28;20493;-79
2022/05/22 11:31:27;;;;;;;5.63;1.25;;;23.30;66.30;;;;;;5074903;28;20053;-80
2022/05/22 11:34:26;;;;;;;5.90;1.42;;;23.30;69.10;;;;;;5057985;28;20083;-80
2022/05/22 11:37:14;;;;;;;9.35;1.50;;;23.10;64.60;;;;;;5074571;28;20040;-80
2022/05/22 11:40:19;;;;;;;5.75;1.55;;;23.00;64.20;;;;;;5075085;28;20048;-80
2022/05/22 11:42:45;;;;;;;4.65;1.13;;;23.10;64.70;;;;;;5074851;28;20492;-79
2022/05/22 11:45:16;;;;;;;7.57;1.42;;;23.30;64.60;;;;;;5074743;28;20539;-79
2022/05/22 11:47:45;;;;;;;7.90;1.50;;;23.40;65.60;;;;;;5074538;28;20045;-79
2022/05/22 11:50:40;;;;;;;4.32;1.10;;;23.50;65.40;;;;;;5074523;28;20158;-79
2022/05/22 11:53:30;;;;;;;6.97;1.70;;;23.50;66.30;;;;;;5057784;28;20415;-79
2022/05/22 11:55:58;;;;;;;7.35;1.70;;;23.20;64.40;;;;;;5074831;28;20052;-79
2022/05/22 11:58:38;;;;;;;7.25;1.70;;;23.00;65.80;;;;;;5057601;28;20044;-79
2022/05/22 12:01:21;;;;;;;5.38;1.10;;;22.90;66.10;;;;;;5057995;28;20048;-79
2022/05/22 12:04:21;;;;;;;6.82;1.75;;;22.70;64.30;;;;;;5057750;28;20107;-79
2022/05/22 12:06:58;;;;;;;7.07;1.20;;;22.50;66.00;;;;;;5073876;28;20048;-79
2022/05/22 12:09:45;;;;;;;6.22;1.50;;;22.30;64.50;;;;;;5074511;28;20210;-79
2022/05/22 12:12:23;;;;;;;6.55;1.15;;;22.10;66.10;;;;;;5074278;28;20048;-79
2022/05/22 12:15:16;;;;;;;5.55;1.85;;;22.00;67.10;;;;;;5074361;28;20181;-79
2022/05/22 12:18:33;;;;;;;7.80;1.55;;;21.80;64.80;;;;;;5074234;28;20052;-80
2022/05/22 12:21:12;;;;;;;5.82;1.40;;;21.70;67.90;;;;;;5040564;28;20048;-80
2022/05/22 12:23:47;;;;;;;6.63;1.05;;;21.60;68.00;;;;;;5074151;28;20098;-80
2022/05/22 12:26:13;;;;;;;8.88;1.40;;;21.60;67.20;;;;;;5073962;28;20535;-80
2022/05/22 12:28:45;;;;;;;7.38;1.63;;;21.50;70.20;;;;;;5073933;28;20084;-80
2022/05/22 12:31:43;;;;;;;6.13;1.17;;;21.50;69.20;;;;;;5073735;28;20049;-80
2022/05/22 12:34:12;;;;;;;6.72;1.45;;;21.40;71.40;;;;;;5071830;28;20071;-80
2022/05/22 12:36:43;;;;;;;4.65;1.10;;;21.20;72.40;;;;;;5056974;28;20080;-80
2022/05/22 12:39:11;;;;;;;5.57;1.50;;;21.10;71.10;;;;;;5057548;28;20044;-80
2022/05/22 12:42:03;;;;;;;6.15;1.33;;;21.00;71.10;;;;;;5057231;28;20102;-80
2022/05/22 12:44:29;;;;;;;6.60;1.08;;;21.00;77.10;;;;;;5056864;28;20052;-80
2022/05/22 12:46:57;;;;;;;5.65;1.48;;;20.90;78.50;;;;;;5073713;28;20106;-79
2022/05/22 12:49:24;;;;;;;7.05;1.50;;;21.00;79.90;;;;;;5073493;28;20048;-79
2022/05/22 12:52:11;;;;;;;6.32;1.05;;;21.00;86.10;;;;;;5073199;28;20048;-79
2022/05/22 12:54:37;;;;;;;4.65;1.20;;;21.00;79.70;;;;;;5073281;28;20059;-79
2022/05/22 12:57:17;;;;;;;8.57;1.98;;;20.90;83.70;;;;;;5073424;28;20045;-79
2022/05/22 12:59:56;;;;;;;7.60;1.40;;;20.90;81.50;;;;;;5073874;28;20044;-79
2022/05/22 13:02:32;;;;;;;6.55;1.27;;;20.80;87.80;;;;;;5073143;28;20044;-80
2022/05/22 13:05:00;;;;;;;7.00;1.55;;;20.80;91.00;;;;;;5072835;28;20139;-80
2022/05/22 13:07:34;;;;;;;6.35;1.50;;;20.80;86.80;;;;;;5072783;28;20044;-80
2022/05/22 13:10:23;;;;;;;5.70;1.27;;;20.80;83.40;;;;;;5056215;28;20049;-80
2022/05/22 13:13:00;;;;;;;7.38;1.40;;;20.80;90.60;;;;;;5072772;28;20099;-80
2022/05/22 13:15:28;;;;;;;6.32;1.40;;;20.90;91.00;;;;;;5072947;28;20059;-80
2022/05/22 13:18:12;;;;;;;5.85;1.48;;;20.90;90.40;;;;;;5054996;28;20051;-80